createdAt,value
2019-06-07T00:01:41.142Z,47.20
2019-06-07T00:05:45.683Z,47.20
2019-06-07T00:09:50.219Z,47.30
2019-06-07T00:13:54.794Z,47.50
2019-06-07T00:17:59.378Z,47.40
2019-06-07T00:22:17.721Z,47.50
2019-06-07T00:26:10.858Z,47.50
2019-06-07T00:30:40.092Z,47.60
2019-06-07T00:34:25.119Z,47.60
2019-06-07T00:38:29.790Z,47.60
2019-06-07T00:42:34.600Z,47.60
2019-06-07T00:46:39.138Z,47.60
2019-06-07T00:50:43.688Z,47.60
2019-06-07T00:54:48.217Z,47.70
2019-06-07T00:59:10.114Z,47.90
2019-06-07T01:02:59.003Z,48.20
2019-06-07T01:07:03.549Z,48.40
2019-06-07T01:11:08.080Z,48.50
2019-06-07T01:15:15.803Z,48.50
2019-06-07T01:19:22.348Z,48.70
2019-06-07T01:23:59.463Z,48.90
2019-06-07T01:27:31.801Z,48.90
2019-06-07T01:31:36.484Z,49.00
2019-06-07T01:35:41.018Z,49.50
2019-06-07T01:39:45.553Z,49.00
2019-06-07T01:43:50.098Z,49.20
2019-06-07T01:47:54.652Z,49.80
2019-06-07T01:51:59.253Z,49.20
2019-06-07T01:56:03.866Z,49.30
2019-06-07T02:00:09.996Z,49.20
2019-06-07T02:04:13.787Z,49.50
2019-06-07T02:08:20.129Z,49.50
2019-06-07T02:12:32.267Z,49.50
2019-06-07T02:16:32.534Z,49.50
2019-06-07T02:20:36.400Z,49.50
2019-06-07T02:24:40.944Z,50.20
2019-06-07T02:28:45.884Z,49.70
2019-06-07T02:32:50.706Z,49.70
2019-06-07T02:36:55.261Z,49.80
2019-06-07T02:41:00.024Z,49.90
2019-06-07T02:45:07.315Z,50.00
2019-06-07T02:49:11.965Z,49.90
2019-06-07T02:53:16.549Z,49.90
2019-06-07T02:57:21.143Z,50.10
2019-06-07T03:01:28.537Z,50.10
2019-06-07T03:05:36.309Z,50.00
2019-06-07T03:09:39.956Z,50.00
2019-06-07T03:13:48.604Z,49.90
2019-06-07T03:17:59.726Z,49.90
2019-06-07T03:22:04.916Z,49.90
2019-06-07T03:26:09.740Z,50.10
2019-06-07T03:34:21.119Z,50.30
2019-06-07T03:38:27.586Z,50.20
2019-06-07T03:42:31.635Z,50.40
2019-06-07T03:46:38.977Z,50.40
2019-06-07T03:50:42.676Z,50.70
2019-06-07T03:54:47.218Z,51.00
2019-06-07T03:58:51.756Z,51.30
2019-06-07T04:02:56.401Z,51.10
2019-06-07T04:07:01.171Z,51.20
2019-06-07T04:11:05.873Z,51.40
2019-06-07T04:15:10.474Z,51.50
2019-06-07T04:19:15.047Z,51.50
2019-06-07T04:23:29.959Z,51.70
2019-06-07T04:27:25.061Z,51.90
2019-06-07T04:31:32.196Z,51.80
2019-06-07T04:35:37.136Z,52.00
2019-06-07T04:39:44.947Z,52.10
2019-06-07T04:43:50.416Z,52.20
2019-06-07T04:47:56.924Z,52.20
2019-06-07T04:52:01.609Z,52.30
2019-06-07T04:56:06.174Z,52.50
2019-06-07T05:00:34.196Z,53.10
2019-06-07T05:04:17.564Z,52.20
2019-06-07T05:08:28.201Z,52.70
2019-06-07T05:12:27.562Z,52.70
2019-06-07T05:16:35.200Z,52.70
2019-06-07T05:20:40.125Z,53.00
2019-06-07T05:24:43.906Z,52.70
2019-06-07T05:28:49.533Z,52.90
2019-06-07T05:32:54.426Z,53.00
2019-06-07T05:37:11.752Z,53.00
2019-06-07T05:41:04.550Z,52.90
2019-06-07T05:45:09.251Z,52.90
2019-06-07T05:49:13.792Z,53.00
2019-06-07T05:53:18.453Z,53.00
2019-06-07T05:57:23.037Z,53.00
2019-06-07T06:01:43.069Z,52.90
2019-06-07T06:05:38.263Z,53.10
2019-06-07T06:09:40.687Z,53.00
2019-06-07T06:14:05.361Z,53.20
2019-06-07T06:17:53.969Z,53.60
2019-06-07T06:21:57.879Z,53.70
2019-06-07T06:26:02.519Z,53.60
2019-06-07T06:30:11.276Z,53.40
2019-06-07T06:34:15.822Z,53.40
2019-06-07T06:38:20.371Z,53.30
2019-06-07T06:42:24.904Z,53.40
2019-06-07T06:46:38.643Z,53.30
2019-06-07T06:50:35.827Z,53.20
2019-06-07T06:54:46.102Z,53.00
2019-06-07T06:59:33.485Z,53.00
2019-06-07T07:03:32.448Z,52.90
2019-06-07T07:06:59.141Z,52.80
2019-06-07T07:11:03.692Z,52.70
2019-06-07T07:15:10.161Z,52.70
2019-06-07T07:19:14.688Z,52.50
2019-06-07T07:23:19.244Z,52.40
2019-06-07T07:27:23.859Z,52.30
2019-06-07T07:31:28.380Z,52.20
2019-06-07T07:35:32.912Z,52.00
2019-06-07T07:39:37.441Z,51.90
2019-06-07T07:43:41.976Z,52.10
2019-06-07T07:48:01.811Z,52.00
2019-06-07T07:51:56.517Z,52.00
2019-06-07T07:56:00.317Z,52.00
2019-06-07T08:00:48.517Z,52.00
2019-06-07T08:04:13.891Z,51.90
2019-06-07T08:08:18.462Z,51.90
2019-06-07T08:12:22.984Z,51.90
2019-06-07T08:16:27.895Z,51.80
2019-06-07T08:20:32.466Z,51.70
2019-06-07T08:24:36.995Z,51.80
2019-06-07T08:28:41.584Z,51.80
2019-06-07T08:32:46.154Z,51.70
2019-06-07T08:36:52.234Z,51.70
2019-06-07T08:41:10.781Z,51.60
2019-06-07T08:45:05.794Z,51.50
2019-06-07T08:49:10.548Z,51.50
2019-06-07T08:53:15.077Z,51.50
2019-06-07T08:57:21.928Z,51.50
2019-06-07T09:01:25.883Z,51.30
2019-06-07T09:05:30.488Z,51.30
2019-06-07T09:09:35.024Z,52.00
2019-06-07T09:13:39.573Z,51.40
2019-06-07T09:18:30.209Z,51.30
2019-06-07T09:21:50.393Z,51.30
2019-06-07T09:26:04.867Z,51.30
2019-06-07T09:30:07.633Z,51.30
2019-06-07T09:34:14.525Z,51.30
2019-06-07T09:38:25.002Z,51.20
2019-06-07T09:42:20.491Z,51.00
2019-06-07T09:46:25.233Z,51.10
2019-06-07T09:50:30.084Z,51.10
2019-06-07T09:58:51.751Z,51.10
2019-06-07T10:02:47.140Z,51.00
2019-06-07T10:06:52.092Z,51.00
2019-06-07T10:10:56.624Z,50.90
2019-06-07T10:15:01.157Z,51.00
2019-06-07T10:19:07.411Z,50.90
2019-06-07T10:23:12.212Z,50.90
2019-06-07T10:27:16.736Z,50.90
2019-06-07T10:31:21.272Z,50.80
2019-06-07T10:35:27.767Z,50.80
2019-06-07T10:39:47.657Z,50.80
2019-06-07T10:43:38.549Z,50.50
2019-06-07T10:47:43.133Z,50.70
2019-06-07T10:51:47.745Z,50.80
2019-06-07T10:55:52.293Z,50.80
2019-06-07T10:59:56.827Z,50.80
2019-06-07T11:04:01.438Z,50.80
2019-06-07T11:08:06.071Z,50.70
2019-06-07T11:12:10.939Z,50.80
2019-06-07T11:16:16.050Z,51.30
2019-06-07T11:20:21.704Z,50.80
2019-06-07T11:24:26.518Z,50.80
2019-06-07T11:28:31.067Z,50.90
2019-06-07T11:32:35.609Z,50.80
2019-06-07T11:36:40.405Z,50.80
2019-06-07T11:40:45.012Z,50.90
2019-06-07T11:44:56.801Z,50.80
2019-06-07T11:48:56.312Z,50.90
2019-06-07T11:53:00.860Z,51.10
2019-06-07T11:57:06.748Z,51.00
2019-06-07T12:01:11.836Z,50.90
2019-06-07T12:05:20.129Z,50.90
2019-06-07T12:09:23.768Z,50.90
2019-06-07T12:13:28.312Z,50.90
2019-06-07T12:17:33.142Z,50.90
2019-06-07T12:21:37.673Z,50.90
2019-06-07T12:25:42.234Z,50.80
2019-06-07T12:29:46.798Z,50.80
2019-06-07T12:33:51.520Z,50.80
2019-06-07T12:37:56.711Z,50.80
2019-06-07T12:42:01.528Z,50.80
2019-06-07T12:46:22.950Z,51.40
2019-06-07T12:50:41.722Z,50.80
2019-06-07T12:54:30.493Z,50.80
2019-06-07T12:58:37.369Z,50.80
2019-06-07T13:02:41.533Z,50.80
2019-06-07T13:06:46.082Z,50.80
2019-06-07T13:10:50.617Z,50.80
2019-06-07T13:14:55.166Z,50.80
2019-06-07T13:18:59.718Z,50.80
2019-06-07T13:23:04.344Z,50.80
2019-06-07T13:27:08.877Z,50.80
2019-06-07T13:31:13.417Z,50.80
2019-06-07T13:35:19.955Z,50.80
2019-06-07T13:39:27.540Z,50.80
2019-06-07T13:43:30.567Z,50.80
2019-06-07T13:47:35.150Z,50.80
2019-06-07T13:51:39.711Z,50.80
2019-06-07T13:55:44.254Z,51.30
2019-06-07T13:59:48.990Z,50.80
2019-06-07T14:03:53.555Z,50.80
2019-06-07T14:07:58.100Z,50.80
2019-06-07T14:12:02.641Z,50.80
2019-06-07T14:16:08.015Z,50.90
2019-06-07T14:20:12.838Z,51.10
2019-06-07T14:24:17.464Z,51.20
2019-06-07T14:28:24.606Z,51.10
2019-06-07T14:32:28.771Z,51.10
2019-06-07T14:36:33.741Z,51.30
2019-06-07T14:40:38.276Z,51.50
2019-06-07T14:44:42.812Z,51.50
2019-06-07T14:48:47.441Z,51.50
2019-06-07T14:52:51.970Z,51.50
2019-06-07T14:56:56.585Z,51.40
2019-06-07T15:01:01.168Z,51.30
2019-06-07T15:05:07.846Z,51.30
2019-06-07T15:09:12.374Z,51.40
2019-06-07T15:13:16.906Z,51.40
2019-06-07T15:17:21.445Z,51.40
2019-06-07T15:21:26.826Z,51.40
2019-06-07T15:25:31.393Z,51.40
2019-06-07T15:29:36.062Z,51.30
2019-06-07T15:33:40.657Z,51.30
2019-06-07T15:37:45.384Z,51.20
2019-06-07T15:41:50.081Z,51.20
2019-06-07T15:45:54.621Z,51.20
2019-06-07T15:49:59.161Z,51.10
2019-06-07T15:54:03.721Z,51.10
2019-06-07T15:58:08.371Z,51.20
2019-06-07T16:02:12.909Z,51.20
2019-06-07T16:06:19.606Z,51.20
2019-06-07T16:10:23.687Z,51.20
2019-06-07T16:14:28.231Z,51.20
2019-06-07T16:18:33.165Z,51.30
2019-06-07T16:22:37.944Z,51.20
2019-06-07T16:26:42.524Z,51.30
2019-06-07T16:30:47.111Z,51.30
2019-06-07T16:34:51.690Z,51.30
2019-06-07T16:38:56.243Z,51.30
2019-06-07T16:43:16.423Z,51.40
2019-06-07T16:47:07.055Z,51.40
2019-06-07T16:51:11.590Z,51.50
2019-06-07T16:55:16.800Z,51.50
2019-06-07T16:59:21.414Z,51.50
2019-06-07T17:03:27.032Z,51.50
2019-06-07T17:07:31.593Z,51.40
2019-06-07T17:11:36.110Z,51.50
2019-06-07T17:15:40.756Z,51.70
2019-06-07T17:19:45.453Z,51.70
2019-06-07T17:23:50.013Z,51.90
2019-06-07T17:27:54.549Z,51.90
2019-06-07T17:31:59.091Z,51.80
2019-06-07T17:36:03.619Z,51.70
2019-06-07T17:40:09.117Z,51.70
2019-06-07T17:44:13.965Z,51.70
2019-06-07T17:48:18.601Z,51.70
2019-06-07T17:52:23.121Z,51.70
2019-06-07T17:56:27.652Z,51.60
2019-06-07T20:09:44.477Z,51.60
2019-06-07T20:13:50.217Z,51.60
2019-06-07T20:17:55.247Z,51.50
2019-06-07T20:22:01.074Z,51.50
2019-06-07T20:26:05.073Z,51.40
2019-06-07T20:30:11.091Z,51.30
2019-06-07T20:34:14.860Z,51.40
2019-06-07T20:38:19.325Z,51.30
2019-06-07T20:42:23.877Z,51.30
2019-06-07T20:46:28.587Z,51.30
2019-06-07T20:50:33.203Z,51.30
2019-06-07T20:54:37.725Z,51.20
2019-06-07T20:58:42.288Z,51.20
2019-06-07T21:02:46.948Z,51.20
2019-06-07T21:06:51.533Z,51.20
2019-06-07T21:10:56.069Z,51.20
2019-06-07T21:15:06.119Z,51.10
2019-06-07T21:19:08.252Z,51.10
2019-06-07T21:23:13.109Z,51.10
2019-06-07T21:27:17.710Z,51.70
2019-06-07T21:31:22.250Z,51.00
2019-06-07T21:35:26.773Z,51.00
2019-06-07T21:39:31.332Z,51.00
2019-06-07T21:43:35.878Z,51.00
2019-06-07T21:47:40.418Z,50.90
2019-06-07T21:51:44.973Z,50.80
2019-06-07T21:55:49.488Z,50.80
2019-06-07T21:59:54.042Z,50.70
2019-06-07T22:03:58.600Z,51.30
2019-06-07T22:08:03.768Z,50.70
2019-06-07T22:12:08.526Z,50.70
2019-06-07T22:16:26.225Z,51.30
2019-06-07T22:20:19.640Z,50.70
2019-06-07T22:24:24.182Z,50.70
2019-06-07T22:28:28.729Z,50.60
2019-06-07T22:32:33.346Z,50.50
2019-06-07T22:36:37.998Z,50.60
2019-06-07T22:40:42.538Z,50.50
2019-06-07T22:44:47.910Z,50.50
2019-06-07T22:48:52.729Z,50.50
2019-06-07T22:52:57.282Z,50.40
2019-06-07T22:57:03.457Z,50.30
2019-06-07T23:01:08.259Z,50.30
2019-06-07T23:05:12.911Z,50.30
2019-06-07T23:09:17.454Z,50.20
2019-06-07T23:13:21.997Z,50.30
2019-06-07T23:17:26.536Z,50.20
2019-06-07T23:21:31.165Z,50.10
2019-06-07T23:25:35.710Z,50.10
2019-06-07T23:29:40.254Z,50.10
2019-06-07T23:33:44.792Z,50.00
2019-06-07T23:37:49.320Z,50.10
2019-06-07T23:41:53.852Z,50.00
2019-06-07T23:45:58.402Z,50.00
2019-06-07T23:50:04.375Z,50.10
2019-06-07T23:54:08.920Z,50.10
2019-06-07T23:58:13.946Z,50.70
